Delta Virtual Airport Information Service

San Juan Luis Munoz Marin International Airport

ICAO: TJSJ Country: Puerto Rico
Latitude: 18.4394 Longitude: -66.0018
Latest Arrival : JBU268731 (KMCO-TJSJ) Latest Departure : DAL6856201 (TJSJ-KATL)


WX CaptureLIVE
Data provided by noaa.gov | Fetched at 09:47:36

METAR : TJSJ 281356Z 00000KT 10SM FEW032 SCT060 BKN110 31/22 A3001

TAF : TJSJ 281140Z 2812/2912 VRB06KT P6SM FEW024 SCT080 SCT100 FM281500 06009KT P6SM VCTS FEW024CB SCT080 SCT100 TEMPO 2816/2818 4SM TSRA BKN024CB FM281800 09011KT 6SM BR SCT024 BKN080 TEMPO 2818/2819 4SM TSRA BKN024CB FM281900 10011KT P6SM VCTS FEW024CB SCT080 FM282100 12010KT P6SM VCSH FEW024 SCT080


Runway Data for TJSJ
Data provided by openaviationdata.com

Runway ID Mag Var Hdg Length Elevation Surface ILS Freq ILS Id ILS Slope
8 -11 77° 10005 ft 9 ft Asphalt 110.3 ISJU 3
10 -11 101° 8013 ft 9 ft Concrete 109.7 ICLA 3
26 -11 257° 10005 ft 9 ft Asphalt -- -- --
28 -11 281° 8013 ft 9 ft Concrete -- -- --

San Juan Luis Munoz Marin International Airport, Puerto Rico
Use only for reference purposes



Not for navigational purposes.